sensor_id;sensor_type;location;lat;lon;timestamp;temperature;humidity
3023;DHT22;1521;53.584;9.938;2024-02-15T00:00:36;11.20;99.90
3023;DHT22;1521;53.584;9.938;2024-02-15T00:03:03;11.20;99.90
3023;DHT22;1521;53.584;9.938;2024-02-15T00:05:29;11.20;99.90
3023;DHT22;1521;53.584;9.938;2024-02-15T00:07:54;11.20;99.90
3023;DHT22;1521;53.584;9.938;2024-02-15T00:10:20;11.20;99.90
3023;DHT22;1521;53.584;9.938;2024-02-15T00:12:50;11.20;99.90
3023;DHT22;1521;53.584;9.938;2024-02-15T00:15:16;11.30;99.90
3023;DHT22;1521;53.584;9.938;2024-02-15T00:17:42;11.30;99.90
3023;DHT22;1521;53.584;9.938;2024-02-15T00:20:08;11.50;99.90
3023;DHT22;1521;53.584;9.938;2024-02-15T00:22:36;11.30;99.90
3023;DHT22;1521;53.584;9.938;2024-02-15T00:25:01;11.90;99.90
3023;DHT22;1521;53.584;9.938;2024-02-15T00:27:28;11.20;99.90
3023;DHT22;1521;53.584;9.938;2024-02-15T00:29:53;11.20;99.90
3023;DHT22;1521;53.584;9.938;2024-02-15T00:32:19;11.20;99.90
3023;DHT22;1521;53.584;9.938;2024-02-15T00:34:44;11.20;99.90
3023;DHT22;1521;53.584;9.938;2024-02-15T00:37:10;11.30;99.90
3023;DHT22;1521;53.584;9.938;2024-02-15T00:39:35;11.30;99.90
3023;DHT22;1521;53.584;9.938;2024-02-15T00:44:27;11.30;99.90
3023;DHT22;1521;53.584;9.938;2024-02-15T00:46:53;11.30;99.90
3023;DHT22;1521;53.584;9.938;2024-02-15T00:49:18;11.30;99.90
3023;DHT22;1521;53.584;9.938;2024-02-15T00:51:47;12.00;99.90
3023;DHT22;1521;53.584;9.938;2024-02-15T00:54:13;11.30;99.90
3023;DHT22;1521;53.584;9.938;2024-02-15T00:56:38;12.40;99.90
3023;DHT22;1521;53.584;9.938;2024-02-15T00:59:05;11.30;99.90
3023;DHT22;1521;53.584;9.938;2024-02-15T01:01:31;11.30;99.90
3023;DHT22;1521;53.584;9.938;2024-02-15T01:03:56;11.30;99.90
3023;DHT22;1521;53.584;9.938;2024-02-15T01:06:22;11.30;99.90
3023;DHT22;1521;53.584;9.938;2024-02-15T01:08:47;11.30;99.90
3023;DHT22;1521;53.584;9.938;2024-02-15T01:11:13;11.30;99.90
3023;DHT22;1521;53.584;9.938;2024-02-15T01:13:39;11.20;99.90
3023;DHT22;1521;53.584;9.938;2024-02-15T01:16:05;11.30;99.90
3023;DHT22;1521;53.584;9.938;2024-02-15T01:18:30;11.30;99.90
3023;DHT22;1521;53.584;9.938;2024-02-15T01:20:57;11.30;99.90
3023;DHT22;1521;53.584;9.938;2024-02-15T01:23:23;11.30;99.90
3023;DHT22;1521;53.584;9.938;2024-02-15T01:28:15;11.30;99.90
3023;DHT22;1521;53.584;9.938;2024-02-15T01:30:40;11.30;99.90
3023;DHT22;1521;53.584;9.938;2024-02-15T01:33:09;11.30;99.90
3023;DHT22;1521;53.584;9.938;2024-02-15T01:35:36;11.30;99.90
3023;DHT22;1521;53.584;9.938;2024-02-15T01:38:02;11.30;99.90
3023;DHT22;1521;53.584;9.938;2024-02-15T01:40:28;11.30;99.90
3023;DHT22;1521;53.584;9.938;2024-02-15T01:42:53;11.30;99.90
3023;DHT22;1521;53.584;9.938;2024-02-15T01:45:19;11.30;99.90
3023;DHT22;1521;53.584;9.938;2024-02-15T01:47:45;11.30;99.90
3023;DHT22;1521;53.584;9.938;2024-02-15T01:50:11;11.30;99.90
3023;DHT22;1521;53.584;9.938;2024-02-15T01:52:39;11.30;99.90
3023;DHT22;1521;53.584;9.938;2024-02-15T01:55:06;11.30;99.90
3023;DHT22;1521;53.584;9.938;2024-02-15T01:57:38;11.30;99.90
3023;DHT22;1521;53.584;9.938;2024-02-15T02:00:06;11.40;99.90
3023;DHT22;1521;53.584;9.938;2024-02-15T02:02:34;11.40;99.90
3023;DHT22;1521;53.584;9.938;2024-02-15T02:05:01;11.40;99.90
3023;DHT22;1521;53.584;9.938;2024-02-15T02:07:28;11.30;99.90
3023;DHT22;1521;53.584;9.938;2024-02-15T02:09:53;11.40;99.90
3023;DHT22;1521;53.584;9.938;2024-02-15T02:12:19;12.60;99.90
3023;DHT22;1521;53.584;9.938;2024-02-15T02:14:45;11.40;99.90
3023;DHT22;1521;53.584;9.938;2024-02-15T02:17:14;11.40;99.90
3023;DHT22;1521;53.584;9.938;2024-02-15T02:19:40;11.30;99.90
3023;DHT22;1521;53.584;9.938;2024-02-15T02:22:07;11.30;99.90
3023;DHT22;1521;53.584;9.938;2024-02-15T02:24:40;11.40;99.90
3023;DHT22;1521;53.584;9.938;2024-02-15T02:27:07;11.40;99.90
3023;DHT22;1521;53.584;9.938;2024-02-15T02:29:34;11.40;99.90
3023;DHT22;1521;53.584;9.938;2024-02-15T02:31:59;11.40;99.90
3023;DHT22;1521;53.584;9.938;2024-02-15T02:34:25;11.50;99.90
3023;DHT22;1521;53.584;9.938;2024-02-15T02:36:50;11.40;99.90
3023;DHT22;1521;53.584;9.938;2024-02-15T02:39:16;11.40;99.90
3023;DHT22;1521;53.584;9.938;2024-02-15T02:41:43;12.20;99.90
3023;DHT22;1521;53.584;9.938;2024-02-15T02:44:08;11.40;99.90
3023;DHT22;1521;53.584;9.938;2024-02-15T02:46:34;11.40;99.90
3023;DHT22;1521;53.584;9.938;2024-02-15T02:49:00;11.40;99.90
3023;DHT22;1521;53.584;9.938;2024-02-15T02:51:25;11.40;99.90
3023;DHT22;1521;53.584;9.938;2024-02-15T02:53:51;11.30;99.90
3023;DHT22;1521;53.584;9.938;2024-02-15T02:56:16;12.30;99.90
3023;DHT22;1521;53.584;9.938;2024-02-15T02:58:43;11.30;99.90
3023;DHT22;1521;53.584;9.938;2024-02-15T03:01:10;11.30;99.90
3023;DHT22;1521;53.584;9.938;2024-02-15T03:03:36;11.30;99.90
3023;DHT22;1521;53.584;9.938;2024-02-15T03:06:03;11.40;99.90
3023;DHT22;1521;53.584;9.938;2024-02-15T03:08:30;11.40;99.90
3023;DHT22;1521;53.584;9.938;2024-02-15T03:10:55;11.40;99.90
3023;DHT22;1521;53.584;9.938;2024-02-15T03:13:21;11.30;99.90
3023;DHT22;1521;53.584;9.938;2024-02-15T03:18:16;11.30;99.90
3023;DHT22;1521;53.584;9.938;2024-02-15T03:20:42;11.40;99.90
3023;DHT22;1521;53.584;9.938;2024-02-15T03:23:08;11.40;99.90
3023;DHT22;1521;53.584;9.938;2024-02-15T03:25:34;11.40;99.90
3023;DHT22;1521;53.584;9.938;2024-02-15T03:28:00;13.00;99.90
3023;DHT22;1521;53.584;9.938;2024-02-15T03:30:31;11.40;99.90
3023;DHT22;1521;53.584;9.938;2024-02-15T03:32:57;11.40;99.90
3023;DHT22;1521;53.584;9.938;2024-02-15T03:35:25;11.40;99.90
3023;DHT22;1521;53.584;9.938;2024-02-15T03:37:51;11.40;99.90
3023;DHT22;1521;53.584;9.938;2024-02-15T03:40:17;11.40;99.90
3023;DHT22;1521;53.584;9.938;2024-02-15T03:42:43;11.40;99.90
3023;DHT22;1521;53.584;9.938;2024-02-15T03:45:09;11.40;99.90
3023;DHT22;1521;53.584;9.938;2024-02-15T03:47:36;11.40;99.90
3023;DHT22;1521;53.584;9.938;2024-02-15T03:50:03;11.40;99.90
3023;DHT22;1521;53.584;9.938;2024-02-15T03:52:28;11.40;99.90
3023;DHT22;1521;53.584;9.938;2024-02-15T03:54:58;11.40;99.90
3023;DHT22;1521;53.584;9.938;2024-02-15T03:57:27;11.50;99.90
3023;DHT22;1521;53.584;9.938;2024-02-15T03:59:54;11.50;99.90
3023;DHT22;1521;53.584;9.938;2024-02-15T04:02:23;11.50;99.90
3023;DHT22;1521;53.584;9.938;2024-02-15T04:04:49;11.50;99.90
3023;DHT22;1521;53.584;9.938;2024-02-15T04:07:18;11.50;99.90
3023;DHT22;1521;53.584;9.938;2024-02-15T04:09:47;11.60;99.90
3023;DHT22;1521;53.584;9.938;2024-02-15T04:12:13;11.60;99.90
3023;DHT22;1521;53.584;9.938;2024-02-15T04:14:40;11.50;99.90
3023;DHT22;1521;53.584;9.938;2024-02-15T04:17:05;11.50;99.90
3023;DHT22;1521;53.584;9.938;2024-02-15T04:19:32;11.50;99.90
3023;DHT22;1521;53.584;9.938;2024-02-15T04:21:57;11.50;99.90
3023;DHT22;1521;53.584;9.938;2024-02-15T04:24:24;11.50;99.90
3023;DHT22;1521;53.584;9.938;2024-02-15T04:26:51;11.50;99.90
3023;DHT22;1521;53.584;9.938;2024-02-15T04:29:17;11.50;99.90
3023;DHT22;1521;53.584;9.938;2024-02-15T04:31:46;11.50;99.90
3023;DHT22;1521;53.584;9.938;2024-02-15T04:34:15;11.50;99.90
3023;DHT22;1521;53.584;9.938;2024-02-15T04:36:41;11.60;99.90
3023;DHT22;1521;53.584;9.938;2024-02-15T04:39:08;11.60;99.90
3023;DHT22;1521;53.584;9.938;2024-02-15T04:41:35;11.60;99.90
3023;DHT22;1521;53.584;9.938;2024-02-15T04:44:01;11.60;99.90
3023;DHT22;1521;53.584;9.938;2024-02-15T04:46:27;11.60;99.90
3023;DHT22;1521;53.584;9.938;2024-02-15T04:48:54;11.60;99.90
3023;DHT22;1521;53.584;9.938;2024-02-15T04:51:21;11.60;99.90
3023;DHT22;1521;53.584;9.938;2024-02-15T04:53:47;11.60;99.90
3023;DHT22;1521;53.584;9.938;2024-02-15T04:56:13;11.50;99.90
3023;DHT22;1521;53.584;9.938;2024-02-15T04:58:43;11.60;99.90
3023;DHT22;1521;53.584;9.938;2024-02-15T05:01:20;11.60;99.90
3023;DHT22;1521;53.584;9.938;2024-02-15T05:03:45;11.60;99.90
3023;DHT22;1521;53.584;9.938;2024-02-15T05:06:11;11.60;99.90
3023;DHT22;1521;53.584;9.938;2024-02-15T05:08:40;11.50;99.90
3023;DHT22;1521;53.584;9.938;2024-02-15T05:11:11;11.60;99.90
3023;DHT22;1521;53.584;9.938;2024-02-15T05:13:44;11.60;99.90
3023;DHT22;1521;53.584;9.938;2024-02-15T05:16:10;11.60;99.90
3023;DHT22;1521;53.584;9.938;2024-02-15T05:18:36;11.60;99.90
3023;DHT22;1521;53.584;9.938;2024-02-15T05:21:03;11.60;99.90
3023;DHT22;1521;53.584;9.938;2024-02-15T05:23:30;11.60;99.90
3023;DHT22;1521;53.584;9.938;2024-02-15T05:25:55;11.50;99.90
3023;DHT22;1521;53.584;9.938;2024-02-15T05:28:22;11.60;99.90
3023;DHT22;1521;53.584;9.938;2024-02-15T05:31:15;11.60;99.90
3023;DHT22;1521;53.584;9.938;2024-02-15T05:33:48;11.60;99.90
3023;DHT22;1521;53.584;9.938;2024-02-15T05:36:15;11.90;99.90
3023;DHT22;1521;53.584;9.938;2024-02-15T05:38:41;11.80;99.90
3023;DHT22;1521;53.584;9.938;2024-02-15T05:41:07;13.50;99.90
3023;DHT22;1521;53.584;9.938;2024-02-15T05:43:36;11.60;99.90
3023;DHT22;1521;53.584;9.938;2024-02-15T05:46:05;11.60;99.90
3023;DHT22;1521;53.584;9.938;2024-02-15T05:48:34;11.60;99.90
3023;DHT22;1521;53.584;9.938;2024-02-15T05:51:07;11.70;99.90
3023;DHT22;1521;53.584;9.938;2024-02-15T05:53:34;11.60;99.90
3023;DHT22;1521;53.584;9.938;2024-02-15T05:56:10;11.60;99.90
3023;DHT22;1521;53.584;9.938;2024-02-15T05:58:36;11.70;99.90
3023;DHT22;1521;53.584;9.938;2024-02-15T06:01:04;11.60;99.90
3023;DHT22;1521;53.584;9.938;2024-02-15T06:03:33;11.70;99.90
3023;DHT22;1521;53.584;9.938;2024-02-15T06:06:02;11.70;99.90
3023;DHT22;1521;53.584;9.938;2024-02-15T06:08:32;11.70;99.90
3023;DHT22;1521;53.584;9.938;2024-02-15T06:10:58;12.70;99.90
3023;DHT22;1521;53.584;9.938;2024-02-15T06:13:26;11.70;99.90
3023;DHT22;1521;53.584;9.938;2024-02-15T06:15:52;11.60;99.90
3023;DHT22;1521;53.584;9.938;2024-02-15T06:18:24;11.60;99.90
3023;DHT22;1521;53.584;9.938;2024-02-15T06:20:53;11.60;99.90
3023;DHT22;1521;53.584;9.938;2024-02-15T06:23:23;11.60;99.90
3023;DHT22;1521;53.584;9.938;2024-02-15T06:25:51;11.70;99.90
3023;DHT22;1521;53.584;9.938;2024-02-15T06:28:16;11.70;99.90
3023;DHT22;1521;53.584;9.938;2024-02-15T06:31:07;11.70;99.90
3023;DHT22;1521;53.584;9.938;2024-02-15T06:33:51;11.70;99.90
3023;DHT22;1521;53.584;9.938;2024-02-15T06:36:49;11.70;99.90
3023;DHT22;1521;53.584;9.938;2024-02-15T06:39:33;11.70;99.90
3023;DHT22;1521;53.584;9.938;2024-02-15T06:42:16;11.70;99.90
3023;DHT22;1521;53.584;9.938;2024-02-15T06:44:45;11.60;99.90
3023;DHT22;1521;53.584;9.938;2024-02-15T06:47:12;11.70;99.90
3023;DHT22;1521;53.584;9.938;2024-02-15T06:49:41;11.70;99.90
3023;DHT22;1521;53.584;9.938;2024-02-15T06:52:07;11.70;99.90
3023;DHT22;1521;53.584;9.938;2024-02-15T06:54:40;11.70;99.90
3023;DHT22;1521;53.584;9.938;2024-02-15T06:57:05;11.60;99.90
3023;DHT22;1521;53.584;9.938;2024-02-15T06:59:32;11.70;99.90
3023;DHT22;1521;53.584;9.938;2024-02-15T07:01:58;11.60;99.90
3023;DHT22;1521;53.584;9.938;2024-02-15T07:04:24;11.80;99.90
3023;DHT22;1521;53.584;9.938;2024-02-15T07:06:51;11.70;99.90
3023;DHT22;1521;53.584;9.938;2024-02-15T07:09:22;11.70;99.90
3023;DHT22;1521;53.584;9.938;2024-02-15T07:11:50;11.70;99.90
3023;DHT22;1521;53.584;9.938;2024-02-15T07:14:15;11.70;99.90
3023;DHT22;1521;53.584;9.938;2024-02-15T07:16:47;11.70;99.90
3023;DHT22;1521;53.584;9.938;2024-02-15T07:19:13;11.70;99.90
3023;DHT22;1521;53.584;9.938;2024-02-15T07:21:40;11.70;99.90
3023;DHT22;1521;53.584;9.938;2024-02-15T07:24:06;11.70;99.90
3023;DHT22;1521;53.584;9.938;2024-02-15T07:26:32;11.70;99.90
3023;DHT22;1521;53.584;9.938;2024-02-15T07:29:00;11.80;99.90
3023;DHT22;1521;53.584;9.938;2024-02-15T07:31:29;11.90;99.90
3023;DHT22;1521;53.584;9.938;2024-02-15T07:33:55;11.80;99.90
3023;DHT22;1521;53.584;9.938;2024-02-15T07:36:21;11.80;99.90
3023;DHT22;1521;53.584;9.938;2024-02-15T07:38:47;11.80;99.90
3023;DHT22;1521;53.584;9.938;2024-02-15T07:41:17;11.80;99.90
3023;DHT22;1521;53.584;9.938;2024-02-15T07:43:43;11.80;99.90
3023;DHT22;1521;53.584;9.938;2024-02-15T07:46:13;11.80;99.90
3023;DHT22;1521;53.584;9.938;2024-02-15T07:48:39;11.80;99.90
3023;DHT22;1521;53.584;9.938;2024-02-15T07:51:09;11.80;99.90
3023;DHT22;1521;53.584;9.938;2024-02-15T07:53:36;11.90;99.90
3023;DHT22;1521;53.584;9.938;2024-02-15T07:56:02;11.90;99.90
3023;DHT22;1521;53.584;9.938;2024-02-15T07:58:28;11.90;99.90
3023;DHT22;1521;53.584;9.938;2024-02-15T08:00:53;11.90;99.90
3023;DHT22;1521;53.584;9.938;2024-02-15T08:03:19;11.90;99.90
3023;DHT22;1521;53.584;9.938;2024-02-15T08:05:44;11.90;99.90
3023;DHT22;1521;53.584;9.938;2024-02-15T08:08:10;11.90;99.90
3023;DHT22;1521;53.584;9.938;2024-02-15T08:10:36;11.90;99.90
3023;DHT22;1521;53.584;9.938;2024-02-15T08:15:27;11.80;99.90
3023;DHT22;1521;53.584;9.938;2024-02-15T08:17:53;11.80;99.90
3023;DHT22;1521;53.584;9.938;2024-02-15T08:20:20;11.80;99.90
3023;DHT22;1521;53.584;9.938;2024-02-15T08:22:49;11.90;99.90
3023;DHT22;1521;53.584;9.938;2024-02-15T08:25:14;11.90;99.90
3023;DHT22;1521;53.584;9.938;2024-02-15T08:27:46;11.80;99.90
3023;DHT22;1521;53.584;9.938;2024-02-15T08:30:15;11.90;99.90
3023;DHT22;1521;53.584;9.938;2024-02-15T08:32:41;11.90;99.90
3023;DHT22;1521;53.584;9.938;2024-02-15T08:35:12;11.90;99.90
3023;DHT22;1521;53.584;9.938;2024-02-15T08:37:39;11.90;99.90
3023;DHT22;1521;53.584;9.938;2024-02-15T08:40:05;12.00;99.90
3023;DHT22;1521;53.584;9.938;2024-02-15T08:42:42;12.00;99.90
3023;DHT22;1521;53.584;9.938;2024-02-15T08:45:08;12.10;99.90
3023;DHT22;1521;53.584;9.938;2024-02-15T08:47:41;12.10;99.90
3023;DHT22;1521;53.584;9.938;2024-02-15T08:50:08;12.20;99.90
3023;DHT22;1521;53.584;9.938;2024-02-15T08:52:41;12.20;99.90
3023;DHT22;1521;53.584;9.938;2024-02-15T08:55:08;12.20;99.90
3023;DHT22;1521;53.584;9.938;2024-02-15T08:57:35;12.20;99.90
3023;DHT22;1521;53.584;9.938;2024-02-15T09:00:04;12.20;99.90
3023;DHT22;1521;53.584;9.938;2024-02-15T09:05:06;12.20;99.90
3023;DHT22;1521;53.584;9.938;2024-02-15T09:07:31;12.30;99.90
3023;DHT22;1521;53.584;9.938;2024-02-15T09:09:57;12.20;99.90
3023;DHT22;1521;53.584;9.938;2024-02-15T09:12:23;12.20;99.90
3023;DHT22;1521;53.584;9.938;2024-02-15T09:17:14;12.30;99.90
3023;DHT22;1521;53.584;9.938;2024-02-15T09:19:40;12.40;99.90
3023;DHT22;1521;53.584;9.938;2024-02-15T09:22:06;12.40;99.90
3023;DHT22;1521;53.584;9.938;2024-02-15T09:24:32;12.40;99.90
3023;DHT22;1521;53.584;9.938;2024-02-15T09:27:01;12.50;99.90
3023;DHT22;1521;53.584;9.938;2024-02-15T09:29:30;12.40;99.90
3023;DHT22;1521;53.584;9.938;2024-02-15T09:31:58;12.40;99.90
3023;DHT22;1521;53.584;9.938;2024-02-15T09:34:24;12.50;99.90
3023;DHT22;1521;53.584;9.938;2024-02-15T09:36:50;12.50;99.90
3023;DHT22;1521;53.584;9.938;2024-02-15T09:39:15;12.50;99.90
3023;DHT22;1521;53.584;9.938;2024-02-15T09:41:43;12.50;99.90
3023;DHT22;1521;53.584;9.938;2024-02-15T09:44:09;12.40;99.90
3023;DHT22;1521;53.584;9.938;2024-02-15T09:46:36;12.50;99.90
3023;DHT22;1521;53.584;9.938;2024-02-15T09:49:01;12.50;99.90
3023;DHT22;1521;53.584;9.938;2024-02-15T09:51:29;12.50;99.90
3023;DHT22;1521;53.584;9.938;2024-02-15T09:53:58;12.50;99.90
3023;DHT22;1521;53.584;9.938;2024-02-15T09:56:25;12.60;99.90
3023;DHT22;1521;53.584;9.938;2024-02-15T09:58:51;12.60;99.90
3023;DHT22;1521;53.584;9.938;2024-02-15T10:01:20;12.60;99.90
3023;DHT22;1521;53.584;9.938;2024-02-15T10:03:49;12.60;99.90
3023;DHT22;1521;53.584;9.938;2024-02-15T10:06:19;12.60;99.90
3023;DHT22;1521;53.584;9.938;2024-02-15T10:08:45;12.60;99.90
3023;DHT22;1521;53.584;9.938;2024-02-15T10:11:12;12.60;99.90
3023;DHT22;1521;53.584;9.938;2024-02-15T10:13:38;12.60;99.90
3023;DHT22;1521;53.584;9.938;2024-02-15T10:16:15;12.60;99.90
3023;DHT22;1521;53.584;9.938;2024-02-15T10:21:07;12.60;99.90
3023;DHT22;1521;53.584;9.938;2024-02-15T10:23:32;12.70;99.90
3023;DHT22;1521;53.584;9.938;2024-02-15T10:25:58;12.70;99.90
3023;DHT22;1521;53.584;9.938;2024-02-15T10:28:24;12.80;99.90
3023;DHT22;1521;53.584;9.938;2024-02-15T10:30:50;12.80;99.90
3023;DHT22;1521;53.584;9.938;2024-02-15T10:33:28;12.90;99.90
3023;DHT22;1521;53.584;9.938;2024-02-15T10:36:09;13.00;99.90
3023;DHT22;1521;53.584;9.938;2024-02-15T10:38:38;12.90;99.90
3023;DHT22;1521;53.584;9.938;2024-02-15T10:41:07;12.90;99.90
3023;DHT22;1521;53.584;9.938;2024-02-15T10:43:37;13.00;99.90
3023;DHT22;1521;53.584;9.938;2024-02-15T10:46:06;13.10;99.90
3023;DHT22;1521;53.584;9.938;2024-02-15T10:48:35;13.10;99.90
3023;DHT22;1521;53.584;9.938;2024-02-15T10:51:03;13.10;99.90
3023;DHT22;1521;53.584;9.938;2024-02-15T10:53:35;13.10;99.90
3023;DHT22;1521;53.584;9.938;2024-02-15T10:56:17;13.10;99.90
3023;DHT22;1521;53.584;9.938;2024-02-15T10:58:50;13.20;99.90
3023;DHT22;1521;53.584;9.938;2024-02-15T11:01:17;13.20;99.90
3023;DHT22;1521;53.584;9.938;2024-02-15T11:03:59;13.20;99.90
3023;DHT22;1521;53.584;9.938;2024-02-15T11:06:27;13.20;99.90
3023;DHT22;1521;53.584;9.938;2024-02-15T11:08:54;13.30;99.90
3023;DHT22;1521;53.584;9.938;2024-02-15T11:11:21;13.20;99.90
3023;DHT22;1521;53.584;9.938;2024-02-15T11:13:47;13.30;99.90
3023;DHT22;1521;53.584;9.938;2024-02-15T11:16:39;13.30;99.90
3023;DHT22;1521;53.584;9.938;2024-02-15T11:19:04;13.30;99.90
3023;DHT22;1521;53.584;9.938;2024-02-15T11:21:52;13.20;99.90
3023;DHT22;1521;53.584;9.938;2024-02-15T11:24:25;13.20;99.90
3023;DHT22;1521;53.584;9.938;2024-02-15T11:26:51;13.20;99.90
3023;DHT22;1521;53.584;9.938;2024-02-15T11:32:42;13.10;99.90
3023;DHT22;1521;53.584;9.938;2024-02-15T11:40:18;13.10;99.90
3023;DHT22;1521;53.584;9.938;2024-02-15T11:42:45;13.00;99.90
3023;DHT22;1521;53.584;9.938;2024-02-15T11:45:12;12.90;99.90
3023;DHT22;1521;53.584;9.938;2024-02-15T11:47:39;12.90;99.90
3023;DHT22;1521;53.584;9.938;2024-02-15T11:50:09;12.90;99.90
3023;DHT22;1521;53.584;9.938;2024-02-15T11:52:40;13.60;99.90
3023;DHT22;1521;53.584;9.938;2024-02-15T11:55:08;12.90;99.90
3023;DHT22;1521;53.584;9.938;2024-02-15T11:57:37;12.90;99.90
3023;DHT22;1521;53.584;9.938;2024-02-15T12:00:24;13.10;99.90
3023;DHT22;1521;53.584;9.938;2024-02-15T12:03:09;12.80;99.90
3023;DHT22;1521;53.584;9.938;2024-02-15T12:05:56;12.90;99.90
3023;DHT22;1521;53.584;9.938;2024-02-15T12:08:44;12.90;99.90
3023;DHT22;1521;53.584;9.938;2024-02-15T12:11:29;12.80;99.90
3023;DHT22;1521;53.584;9.938;2024-02-15T12:14:14;12.80;99.90
3023;DHT22;1521;53.584;9.938;2024-02-15T12:17:01;12.70;99.90
3023;DHT22;1521;53.584;9.938;2024-02-15T12:19:48;12.80;99.90
3023;DHT22;1521;53.584;9.938;2024-02-15T12:22:16;12.80;99.90
3023;DHT22;1521;53.584;9.938;2024-02-15T12:24:43;12.80;99.90
3023;DHT22;1521;53.584;9.938;2024-02-15T12:27:09;12.90;99.90
3023;DHT22;1521;53.584;9.938;2024-02-15T12:29:34;12.80;99.90
3023;DHT22;1521;53.584;9.938;2024-02-15T12:32:00;12.80;99.90
3023;DHT22;1521;53.584;9.938;2024-02-15T12:34:26;12.80;99.90
3023;DHT22;1521;53.584;9.938;2024-02-15T12:37:05;12.70;99.90
3023;DHT22;1521;53.584;9.938;2024-02-15T12:39:31;12.80;99.90
3023;DHT22;1521;53.584;9.938;2024-02-15T12:41:57;12.70;99.90
3023;DHT22;1521;53.584;9.938;2024-02-15T12:44:23;12.70;99.90
3023;DHT22;1521;53.584;9.938;2024-02-15T12:46:56;12.70;99.90
3023;DHT22;1521;53.584;9.938;2024-02-15T12:51:51;12.70;99.90
3023;DHT22;1521;53.584;9.938;2024-02-15T12:54:20;12.70;99.90
3023;DHT22;1521;53.584;9.938;2024-02-15T12:56:47;12.70;99.90
3023;DHT22;1521;53.584;9.938;2024-02-15T12:59:18;12.70;99.90
3023;DHT22;1521;53.584;9.938;2024-02-15T13:01:45;12.60;99.90
3023;DHT22;1521;53.584;9.938;2024-02-15T13:04:24;12.70;99.90
3023;DHT22;1521;53.584;9.938;2024-02-15T13:06:50;12.70;99.90
3023;DHT22;1521;53.584;9.938;2024-02-15T13:09:16;12.70;99.90
3023;DHT22;1521;53.584;9.938;2024-02-15T13:11:41;12.70;99.90
3023;DHT22;1521;53.584;9.938;2024-02-15T13:14:11;12.70;99.90
3023;DHT22;1521;53.584;9.938;2024-02-15T13:16:36;12.70;99.90
3023;DHT22;1521;53.584;9.938;2024-02-15T13:19:02;12.60;99.90
3023;DHT22;1521;53.584;9.938;2024-02-15T13:21:28;12.70;99.90
3023;DHT22;1521;53.584;9.938;2024-02-15T13:23:56;12.70;99.90
3023;DHT22;1521;53.584;9.938;2024-02-15T13:26:21;12.60;99.90
3023;DHT22;1521;53.584;9.938;2024-02-15T13:28:51;12.60;99.90
3023;DHT22;1521;53.584;9.938;2024-02-15T13:31:17;12.70;99.90
3023;DHT22;1521;53.584;9.938;2024-02-15T13:33:42;12.60;99.90
3023;DHT22;1521;53.584;9.938;2024-02-15T13:36:08;12.60;99.90
3023;DHT22;1521;53.584;9.938;2024-02-15T13:38:36;12.60;99.90
3023;DHT22;1521;53.584;9.938;2024-02-15T13:41:03;12.60;99.90
3023;DHT22;1521;53.584;9.938;2024-02-15T13:43:29;12.60;99.90
3023;DHT22;1521;53.584;9.938;2024-02-15T13:45:56;12.60;99.90
3023;DHT22;1521;53.584;9.938;2024-02-15T13:48:22;12.60;99.90
3023;DHT22;1521;53.584;9.938;2024-02-15T13:50:51;12.60;99.90
3023;DHT22;1521;53.584;9.938;2024-02-15T13:53:18;12.60;99.90
3023;DHT22;1521;53.584;9.938;2024-02-15T13:55:44;12.60;99.90
3023;DHT22;1521;53.584;9.938;2024-02-15T13:58:10;12.60;99.90
3023;DHT22;1521;53.584;9.938;2024-02-15T14:00:37;12.60;99.90
3023;DHT22;1521;53.584;9.938;2024-02-15T14:03:05;12.60;99.90
3023;DHT22;1521;53.584;9.938;2024-02-15T14:05:31;12.60;99.90
3023;DHT22;1521;53.584;9.938;2024-02-15T14:07:59;12.60;99.90
3023;DHT22;1521;53.584;9.938;2024-02-15T14:10:28;12.70;99.90
3023;DHT22;1521;53.584;9.938;2024-02-15T14:12:54;12.60;99.90
3023;DHT22;1521;53.584;9.938;2024-02-15T14:15:21;12.70;99.90
3023;DHT22;1521;53.584;9.938;2024-02-15T14:17:47;12.70;99.90
3023;DHT22;1521;53.584;9.938;2024-02-15T14:20:13;12.70;99.90
3023;DHT22;1521;53.584;9.938;2024-02-15T14:22:40;12.60;99.90
3023;DHT22;1521;53.584;9.938;2024-02-15T14:25:06;12.60;99.90
3023;DHT22;1521;53.584;9.938;2024-02-15T14:27:32;12.60;99.90
3023;DHT22;1521;53.584;9.938;2024-02-15T14:29:58;12.70;99.90
3023;DHT22;1521;53.584;9.938;2024-02-15T14:32:45;12.60;99.90
3023;DHT22;1521;53.584;9.938;2024-02-15T14:35:26;12.60;99.90
3023;DHT22;1521;53.584;9.938;2024-02-15T14:37:53;12.60;99.90
3023;DHT22;1521;53.584;9.938;2024-02-15T14:40:21;12.70;99.90
3023;DHT22;1521;53.584;9.938;2024-02-15T14:42:46;12.70;99.90
3023;DHT22;1521;53.584;9.938;2024-02-15T14:45:12;12.70;99.90
3023;DHT22;1521;53.584;9.938;2024-02-15T14:47:38;12.60;99.90
3023;DHT22;1521;53.584;9.938;2024-02-15T14:50:04;12.60;99.90
3023;DHT22;1521;53.584;9.938;2024-02-15T14:52:36;12.60;99.90
3023;DHT22;1521;53.584;9.938;2024-02-15T14:55:05;12.60;99.90
3023;DHT22;1521;53.584;9.938;2024-02-15T14:57:33;12.60;99.90
3023;DHT22;1521;53.584;9.938;2024-02-15T14:59:59;12.60;99.90
3023;DHT22;1521;53.584;9.938;2024-02-15T15:02:25;12.60;99.90
3023;DHT22;1521;53.584;9.938;2024-02-15T15:04:50;12.50;99.90
3023;DHT22;1521;53.584;9.938;2024-02-15T15:07:35;12.60;99.90
3023;DHT22;1521;53.584;9.938;2024-02-15T15:10:19;12.60;99.90
3023;DHT22;1521;53.584;9.938;2024-02-15T15:13:03;12.60;99.90
3023;DHT22;1521;53.584;9.938;2024-02-15T15:15:28;12.60;99.90
3023;DHT22;1521;53.584;9.938;2024-02-15T15:17:54;12.60;99.90
3023;DHT22;1521;53.584;9.938;2024-02-15T15:20:21;12.60;99.90
3023;DHT22;1521;53.584;9.938;2024-02-15T15:25:12;12.50;99.90
3023;DHT22;1521;53.584;9.938;2024-02-15T15:27:38;12.50;99.90
3023;DHT22;1521;53.584;9.938;2024-02-15T15:30:05;12.50;99.90
3023;DHT22;1521;53.584;9.938;2024-02-15T15:32:31;12.50;99.90
3023;DHT22;1521;53.584;9.938;2024-02-15T15:34:57;12.50;99.90
3023;DHT22;1521;53.584;9.938;2024-02-15T15:37:23;12.50;99.90
3023;DHT22;1521;53.584;9.938;2024-02-15T15:39:49;12.60;99.90
3023;DHT22;1521;53.584;9.938;2024-02-15T15:42:15;12.50;99.90
3023;DHT22;1521;53.584;9.938;2024-02-15T15:44:41;12.50;99.90
3023;DHT22;1521;53.584;9.938;2024-02-15T15:47:07;12.50;99.90
3023;DHT22;1521;53.584;9.938;2024-02-15T15:49:32;12.60;99.90
3023;DHT22;1521;53.584;9.938;2024-02-15T15:51:58;12.60;99.90
3023;DHT22;1521;53.584;9.938;2024-02-15T15:54:24;12.50;99.90
3023;DHT22;1521;53.584;9.938;2024-02-15T15:56:49;12.50;99.90
3023;DHT22;1521;53.584;9.938;2024-02-15T15:59:15;12.60;99.90
3023;DHT22;1521;53.584;9.938;2024-02-15T16:01:48;12.50;99.90
3023;DHT22;1521;53.584;9.938;2024-02-15T16:06:39;12.50;99.90
3023;DHT22;1521;53.584;9.938;2024-02-15T16:09:06;12.60;99.90
3023;DHT22;1521;53.584;9.938;2024-02-15T16:11:34;12.50;99.90
3023;DHT22;1521;53.584;9.938;2024-02-15T16:14:00;12.50;99.90
3023;DHT22;1521;53.584;9.938;2024-02-15T16:16:25;12.50;99.90
3023;DHT22;1521;53.584;9.938;2024-02-15T16:18:53;12.50;99.90
3023;DHT22;1521;53.584;9.938;2024-02-15T16:21:18;12.50;99.90
3023;DHT22;1521;53.584;9.938;2024-02-15T16:23:44;12.40;99.90
3023;DHT22;1521;53.584;9.938;2024-02-15T16:26:10;12.50;99.90
3023;DHT22;1521;53.584;9.938;2024-02-15T16:28:35;12.40;99.90
3023;DHT22;1521;53.584;9.938;2024-02-15T16:31:01;12.50;99.90
3023;DHT22;1521;53.584;9.938;2024-02-15T16:33:27;12.50;99.90
3023;DHT22;1521;53.584;9.938;2024-02-15T16:35:53;12.40;99.90
3023;DHT22;1521;53.584;9.938;2024-02-15T16:38:18;12.50;99.90
3023;DHT22;1521;53.584;9.938;2024-02-15T16:40:44;12.50;99.90